Airport View

Enter AWOS ICAO identifier for current METAR.

ex. KFNL

KSRE 031715Z AUTO VRB04G10KT 10SM CLR 31/23 A3003 RMK AO2

3 Jul 2020 17:24

Frequency: 118.625

Phone: 405-382-0111

Other Area AWOS: KSNL - KCQB - KADH - KTIK

TAF KTIK 030900Z 0309/0415 VRB06KT 9999 SKC QNH2995INS TEMPO 0310/0312 35015G35KT BECMG 0316/0317 10012G20KT 9999 FEW055 QNH2993INS TEMPO 0323/0403 02015G25KT 9999 VCTS BKN040CB BECMG 0402/0403 VRB06KT 9999 SCT030 QNH2991INS TX35/0322Z TN21/0312Z